createdAt,value
2022-11-15T00:01:18.706Z,6.41
2022-11-15T00:03:47.084Z,6.45
2022-11-15T00:06:14.641Z,6.33
2022-11-15T00:08:41.807Z,6.31
2022-11-15T00:11:12.511Z,6.31
2022-11-15T00:13:40.239Z,6.14
2022-11-15T00:16:07.671Z,6.26
2022-11-15T00:18:34.990Z,6.25
2022-11-15T00:21:10.218Z,6.24
2022-11-15T00:23:38.201Z,6.16
2022-11-15T00:26:05.999Z,6.10
2022-11-15T00:28:33.580Z,6.11
2022-11-15T00:31:06.292Z,6.02
2022-11-15T00:33:34.548Z,5.95
2022-11-15T00:36:11.559Z,5.92
2022-11-15T00:38:41.072Z,5.89
2022-11-15T00:41:10.170Z,5.74
2022-11-15T00:43:37.981Z,5.72
2022-11-15T00:46:05.604Z,5.63
2022-11-15T00:48:33.073Z,5.62
2022-11-15T00:51:00.293Z,5.67
2022-11-15T00:53:27.585Z,5.48
2022-11-15T00:55:54.822Z,5.39
2022-11-15T00:58:22.033Z,5.29
2022-11-15T01:00:49.360Z,5.46
2022-11-15T01:03:16.695Z,5.54
2022-11-15T01:05:43.928Z,5.39
2022-11-15T01:08:15.493Z,5.45
2022-11-15T01:10:43.447Z,5.51
2022-11-15T01:13:10.810Z,5.51
2022-11-15T01:15:42.024Z,5.37
2022-11-15T01:18:10.130Z,5.37
2022-11-15T01:20:42.912Z,5.46
2022-11-15T01:23:10.502Z,5.31
2022-11-15T01:25:38.578Z,5.40
2022-11-15T01:28:05.787Z,5.25
2022-11-15T01:30:33.118Z,5.19
2022-11-15T01:33:00.407Z,5.25
2022-11-15T01:35:27.612Z,4.95
2022-11-15T01:37:54.779Z,5.11
2022-11-15T01:40:22.057Z,5.13
2022-11-15T01:42:49.232Z,5.06
2022-11-15T01:45:17.580Z,5.08
2022-11-15T01:47:53.559Z,5.08
2022-11-15T01:50:28.866Z,5.23
2022-11-15T01:52:56.652Z,5.14
2022-11-15T01:55:29.838Z,5.09
2022-11-15T01:58:03.928Z,5.08
2022-11-15T02:00:32.634Z,5.08
2022-11-15T02:02:59.908Z,5.06
2022-11-15T02:05:27.275Z,5.24
2022-11-15T02:07:55.324Z,5.13
2022-11-15T02:10:25.524Z,4.98
2022-11-15T02:12:54.235Z,4.89
2022-11-15T02:15:22.044Z,4.97
2022-11-15T02:18:16.157Z,4.99
2022-11-15T02:21:14.199Z,4.99
2022-11-15T02:24:34.045Z,4.90
2022-11-15T02:27:40.820Z,4.85
2022-11-15T02:30:42.361Z,4.77
2022-11-15T02:33:29.812Z,4.74
2022-11-15T02:36:14.821Z,4.71
2022-11-15T02:39:08.664Z,4.99
2022-11-15T02:41:55.367Z,4.85
2022-11-15T02:44:44.463Z,4.90
2022-11-15T02:47:18.229Z,4.80
2022-11-15T02:49:51.288Z,4.79
2022-11-15T02:52:20.955Z,4.76
2022-11-15T02:55:00.612Z,4.78
2022-11-15T02:58:09.098Z,4.65
2022-11-15T03:00:51.444Z,4.75
2022-11-15T03:03:49.112Z,4.74
2022-11-15T03:07:02.347Z,4.80
2022-11-15T03:09:50.012Z,4.80
2022-11-15T03:12:51.235Z,4.82
2022-11-15T03:15:32.794Z,4.94
2022-11-15T03:18:19.254Z,4.87
2022-11-15T03:20:49.588Z,4.91
2022-11-15T03:23:18.420Z,4.94
2022-11-15T03:25:51.111Z,4.98
2022-11-15T03:28:29.538Z,4.86
2022-11-15T03:30:58.065Z,5.03
2022-11-15T03:33:26.691Z,5.03
2022-11-15T03:35:56.164Z,5.17
2022-11-15T03:38:27.455Z,5.14
2022-11-15T03:41:01.323Z,5.09
2022-11-15T03:43:51.768Z,5.15
2022-11-15T03:46:29.271Z,5.11
2022-11-15T03:49:20.747Z,4.97
2022-11-15T03:51:48.098Z,4.95
2022-11-15T03:54:15.413Z,5.03
2022-11-15T03:56:42.618Z,5.10
2022-11-15T03:59:09.785Z,5.01
2022-11-15T04:01:36.983Z,5.07
2022-11-15T04:04:04.327Z,4.99
2022-11-15T04:06:31.482Z,4.96
2022-11-15T04:08:58.694Z,4.95
2022-11-15T04:11:25.860Z,4.99
2022-11-15T04:13:53.068Z,4.92
2022-11-15T04:16:20.250Z,4.87
2022-11-15T04:19:07.472Z,4.89
2022-11-15T04:21:53.349Z,4.74
2022-11-15T04:24:20.557Z,4.76
2022-11-15T04:26:47.737Z,4.91
2022-11-15T04:29:33.667Z,4.96
2022-11-15T04:32:02.838Z,5.03
2022-11-15T04:34:30.117Z,5.18
2022-11-15T04:37:12.713Z,5.17
2022-11-15T04:39:41.888Z,5.12
2022-11-15T04:42:09.775Z,5.16
2022-11-15T04:44:36.954Z,5.28
2022-11-15T04:47:04.569Z,5.28
2022-11-15T04:49:31.773Z,5.33
2022-11-15T04:51:59.053Z,5.01
2022-11-15T04:54:26.427Z,5.17
2022-11-15T04:56:53.697Z,4.91
2022-11-15T04:59:20.910Z,4.99
2022-11-15T05:01:48.135Z,4.87
2022-11-15T05:04:21.585Z,4.83
2022-11-15T05:06:51.545Z,4.91
2022-11-15T05:09:21.359Z,4.94
2022-11-15T05:11:48.975Z,4.96
2022-11-15T05:14:16.674Z,4.87
2022-11-15T05:16:44.209Z,4.85
2022-11-15T05:19:11.363Z,4.87
2022-11-15T05:21:38.571Z,4.95
2022-11-15T05:24:06.477Z,4.92
2022-11-15T05:26:33.667Z,4.93
2022-11-15T05:29:00.915Z,4.99
2022-11-15T05:31:29.153Z,4.86
2022-11-15T05:33:59.316Z,4.88
2022-11-15T05:36:36.572Z,4.87
2022-11-15T05:39:09.028Z,5.03
2022-11-15T05:41:47.462Z,5.02
2022-11-15T05:44:20.994Z,5.26
2022-11-15T05:46:52.191Z,5.25
2022-11-15T05:49:25.826Z,5.35
2022-11-15T05:51:54.841Z,5.43
2022-11-15T05:54:24.722Z,5.59
2022-11-15T05:56:52.616Z,5.69
2022-11-15T05:59:20.687Z,5.77
2022-11-15T06:01:48.005Z,5.79
2022-11-15T06:04:15.200Z,5.81
2022-11-15T06:06:42.339Z,5.89
2022-11-15T06:09:09.470Z,5.88
2022-11-15T06:11:36.689Z,5.72
2022-11-15T06:14:04.008Z,5.66
2022-11-15T06:16:31.194Z,5.79
2022-11-15T06:18:58.384Z,5.85
2022-11-15T06:21:25.640Z,5.76
2022-11-15T06:23:52.824Z,5.75
2022-11-15T06:26:20.350Z,5.66
2022-11-15T06:28:47.508Z,5.68
2022-11-15T06:31:14.705Z,5.69
2022-11-15T06:33:42.006Z,5.62
2022-11-15T06:36:18.163Z,5.60
2022-11-15T06:38:46.161Z,5.58
2022-11-15T06:41:15.116Z,5.50
2022-11-15T06:43:42.639Z,5.40
2022-11-15T06:46:10.795Z,5.39
2022-11-15T06:48:38.771Z,5.34
2022-11-15T06:51:06.329Z,5.41
2022-11-15T06:53:34.478Z,5.55
2022-11-15T06:56:07.458Z,5.59
2022-11-15T06:58:35.942Z,5.51
2022-11-15T07:01:10.491Z,5.58
2022-11-15T07:03:41.421Z,5.53
2022-11-15T07:06:10.051Z,5.66
2022-11-15T07:08:37.408Z,5.56
2022-11-15T07:11:08.864Z,5.64
2022-11-15T07:13:38.071Z,5.63
2022-11-15T07:16:11.291Z,5.59
2022-11-15T07:18:41.219Z,5.68
2022-11-15T07:21:11.889Z,5.77
2022-11-15T07:23:40.412Z,5.75
2022-11-15T07:26:09.262Z,5.83
2022-11-15T07:28:36.777Z,5.75
2022-11-15T07:31:09.555Z,5.70
2022-11-15T07:33:37.190Z,6.00
2022-11-15T07:36:07.232Z,6.37
2022-11-15T07:38:42.138Z,6.56
2022-11-15T07:41:10.755Z,6.62
2022-11-15T07:43:38.957Z,6.79
2022-11-15T07:46:10.176Z,6.90
2022-11-15T07:48:44.605Z,7.06
2022-11-15T07:51:17.296Z,7.36
2022-11-15T07:53:44.958Z,7.60
2022-11-15T07:56:13.061Z,7.70
2022-11-15T07:58:41.103Z,8.29
2022-11-15T08:01:12.626Z,8.85
2022-11-15T08:03:39.990Z,9.58
2022-11-15T08:06:07.252Z,10.51
2022-11-15T08:08:34.428Z,11.16
2022-11-15T08:11:01.964Z,11.28
2022-11-15T08:13:29.500Z,11.33
2022-11-15T08:16:02.067Z,11.24
2022-11-15T08:18:29.393Z,11.44
2022-11-15T08:21:01.381Z,11.56
2022-11-15T08:23:28.841Z,12.49
2022-11-15T08:26:05.039Z,14.02
2022-11-15T08:28:33.132Z,14.61
2022-11-15T08:31:00.365Z,13.39
2022-11-15T08:33:28.946Z,13.29
2022-11-15T08:36:01.450Z,13.20
2022-11-15T08:38:32.468Z,12.84
2022-11-15T08:41:04.951Z,13.14
2022-11-15T08:43:32.350Z,13.52
2022-11-15T08:46:00.138Z,13.50
2022-11-15T08:48:27.407Z,13.60
2022-11-15T08:50:56.444Z,14.26
2022-11-15T08:53:24.380Z,14.29
2022-11-15T08:55:51.529Z,14.34
2022-11-15T08:58:18.691Z,14.28
2022-11-15T09:00:45.839Z,14.35
2022-11-15T09:03:13.008Z,14.05
2022-11-15T09:05:40.238Z,13.93
2022-11-15T09:08:32.422Z,13.56
2022-11-15T09:10:55.042Z,13.32
2022-11-15T09:13:22.933Z,13.12
2022-11-15T09:15:50.082Z,13.44
2022-11-15T09:18:17.230Z,13.26
2022-11-15T09:20:44.365Z,13.25
2022-11-15T09:23:11.520Z,13.62
2022-11-15T09:25:38.667Z,13.88
2022-11-15T09:28:09.572Z,14.17
2022-11-15T09:30:36.730Z,15.00
2022-11-15T09:33:11.861Z,17.95
2022-11-15T09:35:39.161Z,19.62
2022-11-15T09:38:06.329Z,18.65
2022-11-15T09:40:38.314Z,18.37
2022-11-15T09:43:44.326Z,18.69
2022-11-15T09:46:52.080Z,18.21
2022-11-15T09:49:19.983Z,17.12
2022-11-15T09:51:52.183Z,19.16
2022-11-15T09:54:52.227Z,20.71
2022-11-15T09:57:37.606Z,20.58
2022-11-15T10:03:34.417Z,21.51
2022-11-15T10:06:06.112Z,21.64
2022-11-15T10:09:02.530Z,21.09
2022-11-15T10:11:37.836Z,21.36
2022-11-15T10:14:20.599Z,21.40
2022-11-15T10:17:25.018Z,21.99
2022-11-15T10:20:21.501Z,20.63
2022-11-15T10:22:57.459Z,20.95
2022-11-15T10:25:31.923Z,19.84
2022-11-15T10:28:15.313Z,18.88
2022-11-15T10:30:49.593Z,18.97
2022-11-15T10:33:35.153Z,18.36
2022-11-15T10:36:14.085Z,17.12
2022-11-15T10:39:13.450Z,17.02
2022-11-15T10:41:43.126Z,17.07
2022-11-15T10:44:32.237Z,16.47
2022-11-15T10:46:59.372Z,15.91
2022-11-15T10:49:29.930Z,15.89
2022-11-15T10:52:13.124Z,16.10
2022-11-15T10:54:47.274Z,16.37
2022-11-15T10:57:18.674Z,15.96
2022-11-15T10:59:55.195Z,16.10
2022-11-15T11:02:36.783Z,16.26
2022-11-15T11:05:26.312Z,15.90
2022-11-15T11:08:04.402Z,16.13
2022-11-15T11:10:50.844Z,16.67
2022-11-15T11:13:33.368Z,17.71
2022-11-15T11:16:20.292Z,17.72
2022-11-15T11:19:09.058Z,18.71
2022-11-15T11:21:50.609Z,19.24
2022-11-15T11:24:31.811Z,19.98
2022-11-15T11:27:37.627Z,18.99
2022-11-15T11:30:10.918Z,18.29
2022-11-15T11:33:21.119Z,18.33
2022-11-15T11:36:22.835Z,18.64
2022-11-15T11:39:08.828Z,18.12
2022-11-15T11:41:58.616Z,17.38
2022-11-15T11:44:54.063Z,17.53
2022-11-15T11:47:34.578Z,17.10
2022-11-15T11:50:21.554Z,16.28
2022-11-15T11:53:06.721Z,16.19
2022-11-15T11:55:53.707Z,16.03
2022-11-15T11:58:36.690Z,16.15
2022-11-15T12:01:12.961Z,16.13
2022-11-15T12:04:00.345Z,16.14
2022-11-15T12:06:43.556Z,15.86
2022-11-15T12:09:31.739Z,15.51
2022-11-15T12:12:13.989Z,15.72
2022-11-15T12:14:54.763Z,15.47
2022-11-15T12:17:35.079Z,16.07
2022-11-15T12:20:20.616Z,15.95
2022-11-15T12:23:12.526Z,16.09
2022-11-15T12:26:01.186Z,16.07
2022-11-15T12:29:06.456Z,15.97
2022-11-15T12:31:53.463Z,15.82
2022-11-15T12:34:20.507Z,16.01
2022-11-15T12:36:50.370Z,15.82
2022-11-15T12:39:19.385Z,15.75
2022-11-15T12:41:55.510Z,15.37
2022-11-15T12:44:31.465Z,15.45
2022-11-15T12:46:58.537Z,15.28
2022-11-15T12:49:28.367Z,15.08
2022-11-15T12:51:58.362Z,15.01
2022-11-15T12:54:25.462Z,15.08
2022-11-15T12:57:04.627Z,15.13
2022-11-15T13:00:02.712Z,15.27
2022-11-15T13:02:49.385Z,15.35
2022-11-15T13:05:16.608Z,15.37
2022-11-15T13:07:43.887Z,15.45
2022-11-15T13:10:11.058Z,15.22
2022-11-15T13:12:47.206Z,15.33
2022-11-15T13:15:14.346Z,15.13
2022-11-15T13:17:46.159Z,15.21
2022-11-15T13:20:19.672Z,15.21
2022-11-15T13:23:05.609Z,15.02
2022-11-15T13:26:13.092Z,15.05
2022-11-15T13:28:46.246Z,14.98
2022-11-15T13:31:26.740Z,15.00
2022-11-15T13:34:05.345Z,14.80
2022-11-15T13:36:41.068Z,14.93
2022-11-15T13:39:33.577Z,14.96
2022-11-15T13:42:01.374Z,14.63
2022-11-15T13:44:33.388Z,14.76
2022-11-15T13:47:16.484Z,14.77
2022-11-15T13:49:43.737Z,14.71
2022-11-15T13:52:17.375Z,14.67
2022-11-15T13:55:21.610Z,14.59
2022-11-15T13:57:57.743Z,14.35
2022-11-15T14:00:38.564Z,14.34
2022-11-15T14:03:18.042Z,14.03
2022-11-15T14:06:12.735Z,13.92
2022-11-15T14:09:12.070Z,14.01
2022-11-15T14:11:57.625Z,13.98
2022-11-15T14:14:28.036Z,13.70
2022-11-15T14:17:01.273Z,13.80
2022-11-15T14:19:28.374Z,13.62
2022-11-15T14:22:17.156Z,13.58
2022-11-15T14:25:08.932Z,13.45
2022-11-15T14:27:36.307Z,13.43
2022-11-15T14:30:03.971Z,13.51
2022-11-15T14:32:48.004Z,13.33
2022-11-15T14:35:23.220Z,13.46
2022-11-15T14:37:51.055Z,13.30
2022-11-15T14:40:22.992Z,13.42
2022-11-15T14:42:51.131Z,13.36
2022-11-15T14:45:22.762Z,13.27
2022-11-15T14:47:50.258Z,13.39
2022-11-15T14:50:22.483Z,13.42
2022-11-15T14:52:50.049Z,13.38
2022-11-15T14:55:35.931Z,13.16
2022-11-15T14:58:10.844Z,13.24
2022-11-15T15:00:40.973Z,13.13
2022-11-15T15:03:09.187Z,13.19
2022-11-15T15:05:43.453Z,13.16
2022-11-15T15:08:11.827Z,13.23
2022-11-15T15:10:43.985Z,13.12
2022-11-15T15:13:19.589Z,13.00
2022-11-15T15:15:48.619Z,12.85
2022-11-15T15:18:16.377Z,12.93
2022-11-15T15:20:46.776Z,12.89
2022-11-15T15:23:20.050Z,12.82
2022-11-15T15:25:49.944Z,12.83
2022-11-15T15:28:17.327Z,12.83
2022-11-15T15:30:44.631Z,12.71
2022-11-15T15:33:11.839Z,12.78
2022-11-15T15:35:39.190Z,12.72
2022-11-15T15:38:06.438Z,12.73
2022-11-15T15:40:34.396Z,12.69
2022-11-15T15:43:01.649Z,12.64
2022-11-15T15:45:30.517Z,12.59
2022-11-15T15:47:57.894Z,12.52
2022-11-15T15:50:32.839Z,12.58
2022-11-15T15:53:03.165Z,12.46
2022-11-15T15:55:31.236Z,12.42
2022-11-15T15:57:58.862Z,12.34
2022-11-15T16:00:26.404Z,12.41
2022-11-15T16:02:54.576Z,12.38
2022-11-15T16:05:23.131Z,12.37
2022-11-15T16:07:50.704Z,12.29
2022-11-15T16:10:29.455Z,12.35
2022-11-15T16:12:58.210Z,12.19
2022-11-15T16:15:30.342Z,12.27
2022-11-15T16:18:00.920Z,12.23
2022-11-15T16:20:34.672Z,12.20
2022-11-15T16:23:09.020Z,12.15
2022-11-15T16:25:49.674Z,12.25
2022-11-15T16:28:22.387Z,12.12
2022-11-15T16:31:00.810Z,12.09
2022-11-15T16:33:28.233Z,12.20
2022-11-15T16:35:55.396Z,12.13
2022-11-15T16:38:22.609Z,12.07
2022-11-15T16:40:49.895Z,11.93
2022-11-15T16:43:17.248Z,12.01
2022-11-15T16:45:44.842Z,11.99
2022-11-15T16:48:26.952Z,12.08
2022-11-15T16:51:00.704Z,12.02
2022-11-15T16:53:28.237Z,12.09
2022-11-15T16:55:56.070Z,11.99
2022-11-15T16:58:23.959Z,12.06
2022-11-15T17:00:54.008Z,12.00
2022-11-15T17:03:25.144Z,11.93
2022-11-15T17:05:52.856Z,11.92
2022-11-15T17:08:21.857Z,12.01
2022-11-15T17:10:49.408Z,11.93
2022-11-15T17:13:17.070Z,12.01
2022-11-15T17:15:44.289Z,11.98
2022-11-15T17:18:15.937Z,11.98
2022-11-15T17:20:43.513Z,11.93
2022-11-15T17:23:15.094Z,11.93
2022-11-15T17:25:42.493Z,11.96
2022-11-15T17:28:10.408Z,11.93
2022-11-15T17:30:41.800Z,11.90
2022-11-15T17:33:09.031Z,11.93
2022-11-15T17:35:36.263Z,11.97
2022-11-15T17:38:03.478Z,11.90
2022-11-15T17:40:30.940Z,11.86
2022-11-15T17:42:58.078Z,11.92
2022-11-15T17:45:25.302Z,11.95
2022-11-15T17:47:53.744Z,11.97
2022-11-15T17:50:20.899Z,11.87
2022-11-15T17:52:48.045Z,11.80
2022-11-15T17:55:15.429Z,11.87
2022-11-15T17:57:44.141Z,11.85
2022-11-15T18:00:12.380Z,11.88
2022-11-15T18:02:39.588Z,11.83
2022-11-15T18:05:07.598Z,11.92
2022-11-15T18:07:34.827Z,11.81
2022-11-15T18:10:02.012Z,11.84
2022-11-15T18:12:29.461Z,11.83
2022-11-15T18:14:57.952Z,11.80
2022-11-15T18:17:25.177Z,11.81
2022-11-15T18:19:52.338Z,11.81
2022-11-15T18:22:20.432Z,11.78
2022-11-15T18:24:48.193Z,11.84
2022-11-15T18:27:15.372Z,11.76
2022-11-15T18:29:42.668Z,11.76
2022-11-15T18:32:15.035Z,11.76
2022-11-15T18:34:42.165Z,11.78
2022-11-15T18:37:09.687Z,11.78
2022-11-15T18:39:37.769Z,11.92
2022-11-15T18:42:05.386Z,11.77
2022-11-15T18:44:32.660Z,11.86
2022-11-15T18:47:00.181Z,11.84
2022-11-15T18:49:27.664Z,11.86
2022-11-15T18:51:56.006Z,11.76
2022-11-15T18:54:26.875Z,11.84
2022-11-15T18:56:58.017Z,11.79
2022-11-15T18:59:27.585Z,11.88
2022-11-15T19:01:56.036Z,11.82
2022-11-15T19:04:23.433Z,11.72
2022-11-15T19:06:51.307Z,11.81
2022-11-15T19:09:19.673Z,11.84
2022-11-15T19:11:51.419Z,11.72
2022-11-15T19:14:23.947Z,11.77
2022-11-15T19:16:55.050Z,11.79
2022-11-15T19:19:56.996Z,11.71
2022-11-15T19:22:24.543Z,11.77
2022-11-15T19:24:51.732Z,11.68
2022-11-15T19:27:19.155Z,11.59
2022-11-15T19:29:46.362Z,11.69
2022-11-15T19:32:13.639Z,11.61
2022-11-15T19:34:41.637Z,11.65
2022-11-15T19:37:08.824Z,11.60
2022-11-15T19:39:40.002Z,11.61
2022-11-15T19:42:08.625Z,11.63
2022-11-15T19:44:35.808Z,11.58
2022-11-15T19:47:03.017Z,11.57
2022-11-15T19:49:30.174Z,11.62
2022-11-15T19:51:57.560Z,11.58
2022-11-15T19:54:24.822Z,11.55
2022-11-15T19:56:52.092Z,11.57
2022-11-15T19:59:19.318Z,11.55
2022-11-15T20:01:46.715Z,11.54
2022-11-15T20:04:13.867Z,11.58
2022-11-15T20:06:43.492Z,11.48
2022-11-15T20:09:16.156Z,11.50
2022-11-15T20:11:44.035Z,11.43
2022-11-15T20:14:12.931Z,11.40
2022-11-15T20:16:40.491Z,11.40
2022-11-15T20:19:08.691Z,11.40
2022-11-15T20:21:36.142Z,11.37
2022-11-15T20:24:04.591Z,11.33
2022-11-15T20:26:32.215Z,11.39
2022-11-15T20:29:02.010Z,11.34
2022-11-15T20:31:30.685Z,11.26
2022-11-15T20:33:58.809Z,11.33
2022-11-15T20:36:26.311Z,11.29
2022-11-15T20:39:00.372Z,11.30
2022-11-15T20:41:28.271Z,11.28
2022-11-15T20:43:55.924Z,11.25
2022-11-15T20:46:23.179Z,11.26
2022-11-15T20:48:50.394Z,11.29
2022-11-15T20:51:19.498Z,11.29
2022-11-15T20:53:47.788Z,11.17
2022-11-15T20:56:20.428Z,11.23
2022-11-15T20:58:50.364Z,11.18
2022-11-15T21:01:23.490Z,11.18
2022-11-15T21:03:55.596Z,11.17
2022-11-15T21:06:25.099Z,11.15
2022-11-15T21:09:12.727Z,11.08
2022-11-15T21:11:59.222Z,11.06
2022-11-15T21:14:26.405Z,11.07
2022-11-15T21:16:53.715Z,11.05
2022-11-15T21:19:26.641Z,11.06
2022-11-15T21:21:56.141Z,11.08
2022-11-15T21:24:24.618Z,10.99
2022-11-15T21:26:53.041Z,11.03
2022-11-15T21:29:20.637Z,11.01
2022-11-15T21:31:50.980Z,10.99
2022-11-15T21:34:19.178Z,10.95
2022-11-15T21:36:46.651Z,10.91
2022-11-15T21:39:13.890Z,10.88
2022-11-15T21:41:41.164Z,10.90
2022-11-15T21:44:08.669Z,10.89
2022-11-15T21:46:37.196Z,10.83
2022-11-15T21:49:05.687Z,10.85
2022-11-15T21:51:33.601Z,10.86
2022-11-15T21:54:00.915Z,10.77
2022-11-15T21:56:29.637Z,10.75
2022-11-15T21:58:57.173Z,10.65
2022-11-15T22:01:44.683Z,10.70
2022-11-15T22:04:12.369Z,10.70
2022-11-15T22:06:39.782Z,10.63
2022-11-15T22:09:07.655Z,10.62
2022-11-15T22:11:35.589Z,10.57
2022-11-15T22:14:03.380Z,10.50
2022-11-15T22:16:31.577Z,10.57
2022-11-15T22:18:59.322Z,10.54
2022-11-15T22:21:26.649Z,10.45
2022-11-15T22:23:53.844Z,10.44
2022-11-15T22:26:23.765Z,10.31
2022-11-15T22:28:51.849Z,10.40
2022-11-15T22:31:19.541Z,10.37
2022-11-15T22:33:46.969Z,10.39
2022-11-15T22:36:14.742Z,10.30
2022-11-15T22:38:42.114Z,10.30
2022-11-15T22:41:09.454Z,10.31
2022-11-15T22:43:37.162Z,10.23
2022-11-15T22:46:05.603Z,10.20
2022-11-15T22:48:37.560Z,10.10
2022-11-15T22:51:06.660Z,10.04
2022-11-15T22:53:33.911Z,9.96
2022-11-15T22:56:04.354Z,9.88
2022-11-15T22:58:33.227Z,9.81
2022-11-15T23:01:05.320Z,9.76
2022-11-15T23:03:34.062Z,9.71
2022-11-15T23:06:05.221Z,9.64
2022-11-15T23:08:33.228Z,9.59
2022-11-15T23:11:24.065Z,9.59
2022-11-15T23:13:52.236Z,9.59
2022-11-15T23:16:23.749Z,9.55
2022-11-15T23:18:57.708Z,9.52
2022-11-15T23:21:53.804Z,9.50
2022-11-15T23:24:21.956Z,9.50
2022-11-15T23:26:53.434Z,9.49
2022-11-15T23:29:23.484Z,9.46
2022-11-15T23:32:11.187Z,9.47
2022-11-15T23:34:42.720Z,9.47
2022-11-15T23:37:14.507Z,9.43
2022-11-15T23:39:41.718Z,9.45
2022-11-15T23:42:09.784Z,9.42
2022-11-15T23:44:37.329Z,9.43
2022-11-15T23:47:04.810Z,9.41
2022-11-15T23:49:32.095Z,9.42
2022-11-15T23:51:59.302Z,9.40
2022-11-15T23:54:26.663Z,9.45
2022-11-15T23:56:53.932Z,9.48
2022-11-15T23:59:21.188Z,9.47
